Time;durP1;ratioP1;P1;durP2;ratioP2;P2;SDS_P1;SDS_P2;PMS_P1;PMS_P2;Temp;Humidity;BMP_temperature;BMP_pressure;BME280_temperature;BME280_humidity;BME280_pressure;Samples;Min_cycle;Max_cycle;Signal;HPM_P1;HPM_P2
2023/07/17 00:01:47;;;;;;;4.10;3.80;;;;;;;18.22;79.74;100569.07;105632;1257;73333;-47
2023/07/17 00:04:16;;;;;;;4.70;4.20;;;;;;;18.18;79.68;100585.41;105404;1257;70049;-47
2023/07/17 00:06:44;;;;;;;5.20;3.90;;;;;;;18.16;80.02;100587.16;105422;1257;69997;-47
2023/07/17 00:09:13;;;;;;;5.10;4.00;;;;;;;18.16;80.15;100586.48;105420;1253;73981;-47
2023/07/17 00:11:41;;;;;;;6.00;3.50;;;;;;;18.16;80.53;100578.29;105566;1253;83297;-46
2023/07/17 00:14:09;;;;;;;8.00;4.10;;;;;;;18.18;80.42;100581.55;105378;1254;72690;-46
2023/07/17 00:16:38;;;;;;;4.50;3.60;;;;;;;18.15;80.62;100581.78;105370;1253;69922;-46
2023/07/17 00:19:06;;;;;;;6.20;4.10;;;;;;;18.13;80.68;100586.83;105357;1253;69881;-47
2023/07/17 00:21:34;;;;;;;4.70;3.60;;;;;;;18.12;80.85;100586.58;105409;1253;74251;-46
2023/07/17 00:24:03;;;;;;;4.20;3.80;;;;;;;18.12;81.01;100592.36;105379;1253;83780;-47
2023/07/17 00:26:31;;;;;;;6.70;3.80;;;;;;;18.13;81.10;100588.96;105745;1257;72581;-46
2023/07/17 00:29:30;;;;;;;5.90;4.00;;;;;;;18.14;81.28;100582.17;105391;1257;69963;-47
2023/07/17 00:31:58;;;;;;;4.80;4.30;;;;;;;18.15;81.25;100579.81;105596;1254;69907;-46
2023/07/17 00:34:27;;;;;;;3.90;3.40;;;;;;;18.14;81.25;100579.02;105449;1253;74540;-46
2023/07/17 00:36:55;;;;;;;4.40;4.00;;;;;;;18.14;81.16;100581.27;105378;1257;81405;-46
2023/07/17 00:39:24;;;;;;;4.80;3.70;;;;;;;18.14;81.25;100589.09;105392;1253;72686;-46
2023/07/17 00:41:52;;;;;;;7.30;3.90;;;;;;;18.13;81.12;100592.69;105415;1257;69924;-46
2023/07/17 00:44:21;;;;;;;4.10;3.70;;;;;;;18.11;81.15;100594.21;105543;1253;69952;-46
2023/07/17 00:46:50;;;;;;;5.90;4.00;;;;;;;18.07;81.03;100601.56;105362;1257;74837;-46
2023/07/17 00:49:19;;;;;;;4.30;3.90;;;;;;;18.04;81.46;100590.90;105444;1253;83282;-48
2023/07/17 00:51:47;;;;;;;4.30;3.90;;;;;;;18.08;81.67;100582.77;105286;1260;73879;-48
2023/07/17 00:54:18;;;;;;;5.30;3.90;;;;;;;18.12;81.95;100592.55;105225;1253;69977;-47
2023/07/17 00:56:47;;;;;;;3.60;3.20;;;;;;;18.10;81.59;100601.52;105236;1258;70019;-47
2023/07/17 00:59:19;;;;;;;5.10;3.50;;;;;;;18.09;81.54;100597.57;105302;1253;75336;-48
2023/07/17 01:01:47;;;;;;;5.00;3.40;;;;;;;18.09;81.75;100582.20;105624;1253;82341;-46
2023/07/17 01:04:16;;;;;;;3.60;3.20;;;;;;;18.09;81.65;100579.68;105394;1253;73802;-46
2023/07/17 01:06:45;;;;;;;5.70;3.70;;;;;;;18.01;81.47;100586.17;105427;1253;69910;-47
2023/07/17 01:09:16;;;;;;;5.60;3.50;;;;;;;17.95;81.56;100588.70;105410;1253;70003;-47
2023/07/17 01:11:44;;;;;;;4.50;3.80;;;;;;;17.90;81.62;100591.14;105416;1253;74826;-46
2023/07/17 01:14:16;;;;;;;4.80;3.70;;;;;;;17.89;81.84;100585.00;105404;1257;83506;-47
2023/07/17 01:16:46;;;;;;;4.30;3.90;;;;;;;17.88;81.93;100579.45;105404;1253;73597;-47
2023/07/17 01:19:15;;;;;;;5.60;4.00;;;;;;;17.83;81.94;100580.61;105422;1257;69970;-47
2023/07/17 01:21:52;;;;;;;4.10;3.70;;;;;;;17.78;82.00;100582.16;105433;1255;69909;-46
2023/07/17 01:24:20;;;;;;;4.50;3.50;;;;;;;17.74;82.26;100584.88;105291;1255;75537;-46
2023/07/17 01:26:48;;;;;;;4.90;4.00;;;;;;;17.71;82.25;100582.61;105407;1253;82819;-46
2023/07/17 01:29:17;;;;;;;13.70;4.10;;;;;;;17.70;82.38;100584.45;105464;1258;72603;-46
2023/07/17 01:31:46;;;;;;;4.90;3.70;;;;;;;17.64;82.36;100585.20;105338;1256;70081;-46
2023/07/17 01:34:14;;;;;;;6.00;4.00;;;;;;;17.58;82.41;100588.89;105449;1253;69907;-46
2023/07/17 01:36:43;;;;;;;4.20;3.80;;;;;;;17.56;82.64;100596.65;105416;1253;74688;-46
2023/07/17 01:39:11;;;;;;;8.30;3.60;;;;;;;17.54;82.72;100601.90;105260;1258;83302;-46
2023/07/17 01:41:39;;;;;;;4.00;3.70;;;;;;;17.52;82.85;100608.92;105359;1253;73489;-47
2023/07/17 01:44:08;;;;;;;3.90;3.60;;;;;;;17.53;83.18;100616.95;105219;1253;69872;-47
2023/07/17 01:46:36;;;;;;;4.90;3.90;;;;;;;17.54;83.20;100618.83;105429;1258;69996;-47
2023/07/17 01:49:05;;;;;;;6.20;4.10;;;;;;;17.57;83.42;100620.44;105412;1253;74885;-47
2023/07/17 01:51:33;;;;;;;5.50;4.20;;;;;;;17.57;83.42;100627.36;105372;1253;83570;-46
2023/07/17 01:54:02;;;;;;;4.20;3.80;;;;;;;17.57;83.43;100623.98;105441;1253;72728;-46
2023/07/17 01:56:30;;;;;;;5.40;4.20;;;;;;;17.57;83.48;100629.23;105298;1258;70018;-47
2023/07/17 01:58:59;;;;;;;5.40;4.00;;;;;;;17.56;83.52;100633.95;105291;1258;69974;-46
2023/07/17 02:01:27;;;;;;;5.10;3.80;;;;;;;17.57;83.64;100634.20;105388;1253;75067;-47
2023/07/17 02:03:55;;;;;;;6.30;3.60;;;;;;;17.58;83.81;100640.35;105302;1258;83421;-47
2023/07/17 02:06:24;;;;;;;4.50;4.10;;;;;;;17.59;84.02;100644.15;105355;1253;73413;-47
2023/07/17 02:08:54;;;;;;;4.10;3.70;;;;;;;17.61;83.98;100647.90;105390;1254;69986;-46
2023/07/17 02:11:27;;;;;;;4.70;3.80;;;;;;;17.63;84.14;100653.80;105590;1253;69875;-47
2023/07/17 02:13:55;;;;;;;4.90;4.00;;;;;;;17.66;84.13;100658.05;105406;1253;73836;-46
2023/07/17 02:16:24;;;;;;;4.80;4.10;;;;;;;17.72;84.23;100655.19;105757;1253;83907;-47
2023/07/17 02:18:53;;;;;;;5.00;4.00;;;;;;;17.76;84.24;100656.35;105641;1258;73829;-47
2023/07/17 02:21:22;;;;;;;4.90;3.80;;;;;;;17.78;84.06;100656.21;105221;1255;70241;-46
2023/07/17 02:23:51;;;;;;;4.70;4.30;;;;;;;17.85;84.12;100653.36;105344;1258;70104;-46
2023/07/17 02:26:19;;;;;;;5.90;4.00;;;;;;;17.91;84.10;100653.00;105388;1253;73772;-46
2023/07/17 02:28:48;;;;;;;4.90;4.10;;;;;;;17.96;84.08;100650.01;105466;1256;83091;-46
2023/07/17 02:31:16;;;;;;;4.50;4.00;;;;;;;18.03;84.22;100650.79;105302;1257;71772;-46
2023/07/17 02:33:45;;;;;;;4.70;4.10;;;;;;;18.04;84.04;100653.52;105591;1258;70000;-46
2023/07/17 02:36:14;;;;;;;4.10;3.70;;;;;;;18.02;83.85;100654.05;105659;1256;69989;-46
2023/07/17 02:38:44;;;;;;;4.10;3.70;;;;;;;18.00;83.82;100651.46;105448;1254;74813;-46
2023/07/17 02:41:15;;;;;;;4.20;3.70;;;;;;;18.01;83.96;100655.32;105740;1255;83201;-47
2023/07/17 02:43:44;;;;;;;5.00;3.90;;;;;;;18.00;83.81;100656.25;105576;1258;73927;-46
2023/07/17 02:46:12;;;;;;;3.90;3.50;;;;;;;18.02;83.97;100653.66;105459;1253;69930;-46
2023/07/17 02:48:41;;;;;;;5.20;3.80;;;;;;;18.03;84.05;100650.94;105592;1257;69984;-46
2023/07/17 02:51:09;;;;;;;6.10;4.00;;;;;;;18.02;83.73;100651.50;105421;1256;73247;-46
2023/07/17 02:53:37;;;;;;;4.10;3.70;;;;;;;17.99;83.68;100662.54;105366;1253;83457;-48
2023/07/17 02:56:07;;;;;;;4.80;3.90;;;;;;;17.98;83.73;100667.71;105162;1256;72668;-47
2023/07/17 02:58:42;;;;;;;4.70;3.30;;;;;;;17.97;83.75;100666.58;105705;1258;69867;-47
2023/07/17 03:01:11;;;;;;;5.50;4.60;;;;;;;17.94;83.62;100661.11;105442;1253;69976;-48
2023/07/17 03:03:40;;;;;;;6.20;3.90;;;;;;;17.88;83.39;100658.79;105474;1253;74836;-47
2023/07/17 03:06:08;;;;;;;5.20;4.00;;;;;;;17.82;83.37;100660.95;105415;1253;82327;-47
2023/07/17 03:08:36;;;;;;;4.20;3.70;;;;;;;17.75;83.32;100662.79;105372;1253;72713;-47
2023/07/17 03:11:05;;;;;;;5.00;4.10;;;;;;;17.67;83.28;100668.95;105376;1255;70001;-47
2023/07/17 03:13:33;;;;;;;5.30;4.20;;;;;;;17.58;83.25;100671.21;105437;1257;69924;-47
2023/07/17 03:16:02;;;;;;;4.20;3.80;;;;;;;17.50;83.42;100671.21;105482;1257;74878;-47
2023/07/17 03:18:31;;;;;;;5.10;4.10;;;;;;;17.44;83.48;100675.84;105416;1253;83278;-48
2023/07/17 03:20:59;;;;;;;9.00;4.20;;;;;;;17.41;83.81;100676.19;105440;1256;74012;-47
2023/07/17 03:23:28;;;;;;;6.20;4.20;;;;;;;17.38;83.81;100674.08;105475;1253;70005;-47
2023/07/17 03:25:57;;;;;;;6.90;4.10;;;;;;;17.34;83.84;100672.04;105371;1254;70009;-47
2023/07/17 03:28:25;;;;;;;6.30;3.80;;;;;;;17.31;83.94;100674.86;105244;1253;73734;-47
2023/07/17 03:30:56;;;;;;;5.00;4.50;;;;;;;17.26;84.10;100672.35;105443;1258;82078;-47
2023/07/17 03:33:25;;;;;;;5.60;4.40;;;;;;;17.23;84.28;100670.59;105440;1253;73376;-47
2023/07/17 03:35:53;;;;;;;4.80;4.10;;;;;;;17.25;84.56;100668.02;105457;1253;69826;-46
2023/07/17 03:38:22;;;;;;;6.10;4.10;;;;;;;17.24;84.54;100666.84;105432;1257;69923;-47
2023/07/17 03:40:50;;;;;;;6.40;4.90;;;;;;;17.22;84.70;100667.61;105412;1253;75176;-47
2023/07/17 03:43:19;;;;;;;7.30;4.60;;;;;;;17.24;85.10;100666.11;105389;1252;83037;-47
2023/07/17 03:45:51;;;;;;;6.90;4.50;;;;;;;17.28;85.22;100664.29;105422;1253;73662;-48
2023/07/17 03:48:22;;;;;;;6.00;4.50;;;;;;;17.35;85.48;100660.29;105190;1258;70112;-47
2023/07/17 03:50:51;;;;;;;6.90;4.50;;;;;;;17.41;85.44;100662.95;105474;1256;70584;-48
2023/07/17 03:53:19;;;;;;;5.90;4.20;;;;;;;17.47;85.49;100656.59;105434;1253;74523;-49
2023/07/17 03:55:48;;;;;;;6.20;5.00;;;;;;;17.55;85.40;100650.77;105365;1256;82526;-48
2023/07/17 03:58:17;;;;;;;4.90;4.10;;;;;;;17.63;85.51;100645.70;105425;1257;73069;-47
2023/07/17 04:00:45;;;;;;;9.50;4.40;;;;;;;17.68;85.46;100646.44;105665;1258;69945;-48
2023/07/17 04:03:14;;;;;;;8.10;4.50;;;;;;;17.71;85.33;100644.10;105411;1257;69993;-47
2023/07/17 04:05:45;;;;;;;4.90;3.80;;;;;;;17.74;85.41;100642.33;105248;1253;74844;-47
2023/07/17 04:08:13;;;;;;;6.90;4.40;;;;;;;17.77;85.52;100643.55;105757;1253;83400;-47
2023/07/17 04:10:42;;;;;;;5.90;4.30;;;;;;;17.80;85.47;100645.16;105458;1257;74015;-47
2023/07/17 04:13:10;;;;;;;6.30;4.40;;;;;;;17.84;85.54;100641.59;105195;1256;70003;-47
2023/07/17 04:15:41;;;;;;;6.10;4.30;;;;;;;17.88;85.61;100643.77;105507;1253;69929;-48
2023/07/17 04:18:12;;;;;;;4.80;3.60;;;;;;;17.92;85.74;100639.96;105396;1253;73868;-49
2023/07/17 04:20:42;;;;;;;5.20;4.20;;;;;;;17.99;85.65;100641.84;105298;1258;83657;-47
2023/07/17 04:23:12;;;;;;;7.20;4.40;;;;;;;18.07;85.61;100645.92;105454;1253;73630;-47
2023/07/17 04:25:44;;;;;;;5.90;4.20;;;;;;;18.14;85.50;100646.89;105377;1257;70041;-48
2023/07/17 04:28:13;;;;;;;5.10;4.40;;;;;;;18.20;85.23;100647.37;105205;1258;70461;-51
2023/07/17 04:30:42;;;;;;;5.70;4.20;;;;;;;18.26;84.95;100644.53;105619;1254;75068;-50
2023/07/17 04:33:12;;;;;;;;;;;;;;;18.31;84.94;100644.54;105452;1253;82671;-52
2023/07/17 04:35:41;;;;;;;6.10;4.60;;;;;;;18.34;84.78;100645.42;105444;1255;72635;-48
2023/07/17 04:38:09;;;;;;;5.90;4.30;;;;;;;18.35;84.69;100646.62;105373;1256;70019;-53
2023/07/17 04:40:37;;;;;;;6.30;4.30;;;;;;;18.36;84.55;100645.63;105543;1257;70000;-49
2023/07/17 04:43:06;;;;;;;7.40;4.30;;;;;;;18.37;84.57;100642.36;105489;1253;73886;-47
2023/07/17 04:45:41;;;;;;;6.40;4.50;;;;;;;18.37;84.49;100643.64;105440;1253;82352;-46
2023/07/17 04:48:12;;;;;;;5.60;3.90;;;;;;;18.37;84.63;100643.80;105377;1258;72040;-48
2023/07/17 04:50:44;;;;;;;7.50;4.10;;;;;;;18.40;84.60;100642.02;105231;1256;69991;-47
2023/07/17 04:53:13;;;;;;;4.60;4.00;;;;;;;18.45;84.69;100639.20;105433;1253;69934;-46
2023/07/17 04:55:41;;;;;;;6.00;4.50;;;;;;;18.50;84.54;100636.75;105430;1253;74621;-47
2023/07/17 04:58:10;;;;;;;5.60;4.40;;;;;;;18.56;84.88;100633.50;105626;1255;83310;-46
2023/07/17 05:00:39;;;;;;;6.00;4.00;;;;;;;18.63;84.70;100630.37;105440;1253;72462;-47
2023/07/17 05:03:09;;;;;;;8.30;4.40;;;;;;;18.70;84.61;100633.66;105246;1258;69940;-47
2023/07/17 05:05:39;;;;;;;5.00;3.80;;;;;;;18.77;84.49;100633.90;105529;1253;70032;-47
2023/07/17 05:08:08;;;;;;;6.00;4.30;;;;;;;18.85;84.30;100636.92;105230;1258;75044;-47
2023/07/17 05:10:37;;;;;;;5.00;3.80;;;;;;;18.92;84.25;100645.42;105459;1253;82304;-47
2023/07/17 05:13:05;;;;;;;5.30;4.10;;;;;;;19.00;84.24;100643.16;105421;1253;72988;-49
2023/07/17 05:15:34;;;;;;;6.00;3.80;;;;;;;19.08;84.02;100638.34;105418;1253;69895;-47
2023/07/17 05:18:04;;;;;;;5.80;3.80;;;;;;;19.18;83.17;100638.34;105438;1257;69932;-47
2023/07/17 05:20:32;;;;;;;7.40;3.30;;;;;;;19.28;82.48;100634.45;105483;1253;74686;-49
2023/07/17 05:23:00;;;;;;;5.90;3.70;;;;;;;19.40;81.90;100638.08;105651;1258;83474;-49
2023/07/17 05:25:29;;;;;;;5.30;3.40;;;;;;;19.51;81.05;100641.36;105423;1253;73694;-48
2023/07/17 05:27:57;;;;;;;7.10;3.60;;;;;;;19.63;80.25;100643.76;105420;1253;69981;-49
2023/07/17 05:30:40;;;;;;;6.50;3.50;;;;;;;19.73;79.88;100641.46;105382;1257;70000;-47
2023/07/17 05:33:08;;;;;;;4.30;3.50;;;;;;;19.81;79.54;100643.90;105538;1258;74247;-49
2023/07/17 05:35:36;;;;;;;5.10;4.10;;;;;;;19.89;79.06;100641.70;105202;1253;83116;-49
2023/07/17 05:38:05;;;;;;;8.80;4.20;;;;;;;19.98;78.82;100646.44;105445;1255;73722;-46
2023/07/17 05:40:35;;;;;;;5.00;3.50;;;;;;;20.05;78.42;100646.23;105390;1253;69885;-47
2023/07/17 05:43:04;;;;;;;5.60;3.60;;;;;;;20.13;78.00;100645.99;105441;1253;70083;-47
2023/07/17 05:45:33;;;;;;;4.70;3.80;;;;;;;20.22;77.50;100640.77;105497;1257;74863;-48
2023/07/17 05:48:02;;;;;;;4.90;3.80;;;;;;;20.30;77.11;100638.37;105569;1259;82602;-47
2023/07/17 05:50:31;;;;;;;5.10;3.30;;;;;;;20.40;76.79;100641.53;105473;1257;72128;-47
2023/07/17 05:53:00;;;;;;;5.80;3.70;;;;;;;20.49;76.40;100640.38;105438;1253;69840;-48
2023/07/17 05:55:29;;;;;;;6.60;3.80;;;;;;;20.57;75.99;100642.60;105457;1257;70069;-47
2023/07/17 05:57:57;;;;;;;6.60;3.80;;;;;;;20.65;75.51;100642.89;105458;1257;73634;-47
2023/07/17 06:00:26;;;;;;;4.30;3.60;;;;;;;20.73;75.27;100641.39;105489;1253;83750;-47
2023/07/17 06:02:54;;;;;;;4.70;3.60;;;;;;;20.82;75.19;100635.42;105412;1258;73524;-47
2023/07/17 06:05:23;;;;;;;5.00;3.50;;;;;;;20.90;74.89;100631.05;105518;1253;70258;-49
2023/07/17 06:07:51;;;;;;;6.10;3.50;;;;;;;20.99;74.66;100628.95;105670;1257;69970;-49
2023/07/17 06:10:20;;;;;;;7.30;3.90;;;;;;;21.08;74.55;100629.33;105468;1257;74842;-48
2023/07/17 06:12:48;;;;;;;5.50;3.90;;;;;;;21.17;74.42;100630.02;105462;1253;82469;-48
2023/07/17 06:15:17;;;;;;;4.50;3.80;;;;;;;21.26;74.32;100632.13;105402;1253;73423;-49
2023/07/17 06:17:45;;;;;;;6.70;3.90;;;;;;;21.36;74.25;100630.88;105633;1258;69987;-49
2023/07/17 06:20:14;;;;;;;5.90;3.50;;;;;;;21.47;73.98;100639.14;105440;1253;70010;-49
2023/07/17 06:22:42;;;;;;;6.50;3.80;;;;;;;21.57;73.83;100641.52;105415;1253;74711;-48
2023/07/17 06:25:11;;;;;;;6.30;3.50;;;;;;;21.66;73.16;100633.14;105397;1257;83154;-50
2023/07/17 06:27:39;;;;;;;5.30;3.80;;;;;;;21.76;72.72;100620.77;105327;1253;73685;-48
2023/07/17 06:30:08;;;;;;;5.70;3.90;;;;;;;21.94;73.04;100615.21;105540;1258;69932;-48
2023/07/17 06:32:37;;;;;;;5.80;3.60;;;;;;;22.17;72.54;100603.79;105496;1257;69866;-48
2023/07/17 06:35:06;;;;;;;4.90;3.60;;;;;;;22.34;71.76;100594.89;105622;1253;73839;-48
2023/07/17 06:37:35;;;;;;;5.90;3.90;;;;;;;22.52;71.82;100602.80;105746;1257;82763;-48
2023/07/17 06:40:04;;;;;;;6.00;3.40;;;;;;;22.70;69.78;100614.86;105635;1257;71852;-49
2023/07/17 06:42:33;;;;;;;5.30;3.40;;;;;;;22.87;68.38;100631.02;105692;1253;69857;-48
2023/07/17 06:45:02;;;;;;;7.30;3.70;;;;;;;23.03;67.37;100638.10;105583;1256;69929;-48
2023/07/17 06:47:31;;;;;;;6.10;3.60;;;;;;;23.21;66.55;100639.41;105580;1253;74939;-48
2023/07/17 06:50:05;;;;;;;6.90;3.70;;;;;;;23.40;65.57;100637.94;105623;1257;83134;-48
2023/07/17 06:52:34;;;;;;;6.10;3.30;;;;;;;23.56;64.99;100630.23;105680;1253;72616;-49
2023/07/17 06:55:03;;;;;;;8.80;3.80;;;;;;;23.72;63.99;100620.29;105713;1256;69892;-47
2023/07/17 06:57:32;;;;;;;6.60;3.40;;;;;;;23.87;63.16;100610.23;105766;1253;70002;-48
2023/07/17 07:00:05;;;;;;;7.30;3.80;;;;;;;24.03;62.51;100605.60;105745;1257;74660;-48
2023/07/17 07:02:34;;;;;;;9.20;3.60;;;;;;;24.16;62.22;100606.85;105630;1253;83506;-50
2023/07/17 07:05:07;;;;;;;6.40;3.70;;;;;;;24.28;61.76;100618.16;105529;1254;73744;-48
2023/07/17 07:07:35;;;;;;;6.70;3.60;;;;;;;24.38;61.42;100622.08;105562;1258;70508;-49
2023/07/17 07:10:05;;;;;;;5.80;3.40;;;;;;;24.45;60.75;100622.31;105510;1258;69927;-52
2023/07/17 07:12:33;;;;;;;5.10;3.40;;;;;;;24.50;60.22;100632.41;105502;1258;74533;-49
2023/07/17 07:15:02;;;;;;;7.70;3.70;;;;;;;24.55;59.52;100633.33;105624;1253;83761;-46
2023/07/17 07:17:31;;;;;;;4.70;3.30;;;;;;;24.61;58.88;100631.98;105673;1253;72796;-48
2023/07/17 07:19:59;;;;;;;6.40;3.50;;;;;;;24.64;58.06;100635.37;105681;1253;69970;-50
2023/07/17 07:22:28;;;;;;;8.80;3.30;;;;;;;24.64;57.28;100641.88;105612;1257;69929;-47
2023/07/17 07:24:56;;;;;;;6.40;3.40;;;;;;;24.62;56.60;100646.95;105645;1257;74491;-47
2023/07/17 07:27:26;;;;;;;5.30;3.20;;;;;;;24.63;56.26;100644.79;105731;1256;83368;-47
2023/07/17 07:29:54;;;;;;;4.60;3.40;;;;;;;24.71;55.97;100646.73;105365;1253;74479;-48
2023/07/17 07:32:23;;;;;;;6.50;3.50;;;;;;;24.79;55.46;100654.38;105840;1253;69923;-48
2023/07/17 07:34:51;;;;;;;6.20;3.50;;;;;;;24.88;55.15;100652.27;105485;1258;69993;-46
2023/07/17 07:37:20;;;;;;;7.80;3.00;;;;;;;24.99;54.69;100648.77;105537;1253;74423;-47
2023/07/17 07:39:48;;;;;;;6.50;3.30;;;;;;;25.06;54.56;100654.90;105520;1259;83829;-46
2023/07/17 07:42:17;;;;;;;7.20;3.30;;;;;;;25.13;54.14;100663.84;105855;1253;73797;-47
2023/07/17 07:44:45;;;;;;;5.70;3.00;;;;;;;25.21;53.28;100667.85;105692;1254;69991;-47
2023/07/17 07:47:14;;;;;;;5.30;2.90;;;;;;;25.28;52.66;100666.65;105558;1258;70376;-47
2023/07/17 07:49:42;;;;;;;9.30;3.50;;;;;;;25.35;52.16;100660.39;105462;1257;74872;-47
2023/07/17 07:52:14;;;;;;;7.20;3.30;;;;;;;25.44;51.62;100652.90;105625;1258;83338;-47
2023/07/17 07:54:45;;;;;;;6.10;2.90;;;;;;;25.55;51.08;100644.33;105622;1257;73563;-48
2023/07/17 07:57:14;;;;;;;8.00;3.30;;;;;;;25.69;50.84;100644.42;105466;1253;69987;-47
2023/07/17 07:59:42;;;;;;;3.30;2.70;;;;;;;25.84;50.18;100644.80;105590;1253;70440;-48
2023/07/17 08:02:11;;;;;;;5.70;3.20;;;;;;;25.96;49.71;100642.15;105488;1258;73765;-47
2023/07/17 08:04:39;;;;;;;6.70;3.30;;;;;;;26.02;49.58;100643.55;105581;1257;84405;-46
2023/07/17 08:07:08;;;;;;;6.10;3.30;;;;;;;25.99;48.41;100647.63;105522;1257;73709;-46
2023/07/17 08:09:37;;;;;;;7.30;3.40;;;;;;;25.93;48.27;100651.66;105542;1267;70016;-46
2023/07/17 08:12:06;;;;;;;7.00;3.30;;;;;;;25.95;48.16;100646.02;105809;1257;69998;-45
2023/07/17 08:14:34;;;;;;;6.40;3.60;;;;;;;26.04;47.94;100647.86;105713;1253;74976;-47
2023/07/17 08:17:03;;;;;;;6.90;3.10;;;;;;;26.11;47.40;100643.23;105702;1257;83922;-48
2023/07/17 08:19:31;;;;;;;7.10;3.30;;;;;;;26.17;47.23;100640.98;105746;1253;72285;-47
2023/07/17 08:21:59;;;;;;;6.30;2.90;;;;;;;26.26;47.08;100646.34;105446;1258;69982;-47
2023/07/17 08:24:28;;;;;;;4.50;2.80;;;;;;;26.37;46.64;100650.44;105597;1257;69908;-46
2023/07/17 08:26:57;;;;;;;5.30;2.90;;;;;;;26.44;46.29;100653.71;105517;1257;73579;-48
2023/07/17 08:29:30;;;;;;;10.20;3.20;;;;;;;26.42;45.65;100651.20;105538;1255;82440;-47
2023/07/17 08:31:58;;;;;;;5.00;2.80;;;;;;;26.38;45.48;100652.73;105773;1253;73650;-46
2023/07/17 08:34:29;;;;;;;5.30;2.60;;;;;;;26.39;45.34;100660.35;105692;1253;69966;-50
2023/07/17 08:36:57;;;;;;;6.10;3.00;;;;;;;26.46;44.99;100669.98;105551;1255;69882;-47
2023/07/17 08:39:26;;;;;;;7.40;3.10;;;;;;;26.57;44.35;100669.65;105534;1253;74796;-47
2023/07/17 08:41:55;;;;;;;7.00;2.60;;;;;;;26.67;44.19;100673.86;105496;1259;83475;-49
2023/07/17 08:44:24;;;;;;;5.90;2.90;;;;;;;26.74;43.82;100678.04;105702;1258;72305;-48
2023/07/17 08:46:53;;;;;;;7.40;2.70;;;;;;;26.82;43.23;100677.36;105920;1253;70443;-47
2023/07/17 08:49:23;;;;;;;14.80;3.90;;;;;;;26.88;42.69;100684.80;105763;1257;69915;-47
2023/07/17 08:51:51;;;;;;;7.00;3.00;;;;;;;26.99;42.40;100672.02;105867;1253;74572;-47
2023/07/17 08:54:20;;;;;;;4.50;2.50;;;;;;;27.11;42.03;100660.73;105546;1253;82430;-47
2023/07/17 08:57:03;;;;;;;7.10;2.70;;;;;;;27.31;41.72;100662.89;105913;1257;73531;-47
2023/07/17 08:59:34;;;;;;;6.60;3.10;;;;;;;27.42;41.09;100673.39;105543;1259;70008;-48
2023/07/17 09:02:03;;;;;;;7.20;2.80;;;;;;;27.40;40.61;100673.96;105691;1253;70427;-48
2023/07/17 09:04:33;;;;;;;5.90;2.70;;;;;;;27.33;40.70;100674.86;105579;1257;75824;-48
2023/07/17 09:07:01;;;;;;;8.00;3.20;;;;;;;27.39;40.58;100673.59;105629;1257;83113;-48
2023/07/17 09:09:30;;;;;;;5.00;2.60;;;;;;;27.43;40.27;100667.21;105639;1257;73492;-47
2023/07/17 09:12:08;;;;;;;5.90;2.70;;;;;;;27.41;40.15;100662.77;105560;1253;69965;-48
2023/07/17 09:14:38;;;;;;;7.10;3.20;;;;;;;27.41;40.10;100662.53;105652;1253;70035;-47
2023/07/17 09:17:07;;;;;;;6.50;2.70;;;;;;;27.44;39.92;100665.10;105612;1253;75367;-47
2023/07/17 09:19:37;;;;;;;7.60;2.80;;;;;;;27.53;39.88;100666.83;105687;1257;82291;-47
2023/07/17 09:22:07;;;;;;;5.60;2.80;;;;;;;27.63;39.53;100666.14;105534;1253;73676;-47
2023/07/17 09:24:36;;;;;;;5.70;2.70;;;;;;;27.84;39.65;100672.23;105801;1258;70064;-49
2023/07/17 09:27:06;;;;;;;;;;;;;;;27.95;39.09;100668.35;105567;1253;69898;-49
2023/07/17 09:29:41;;;;;;;6.30;2.80;;;;;;;28.05;38.97;100662.09;105614;1254;74840;-47
2023/07/17 09:32:21;;;;;;;5.40;3.10;;;;;;;28.24;38.87;100660.65;106041;1256;83364;-48
2023/07/17 09:35:04;;;;;;;4.90;2.80;;;;;;;28.53;38.90;100659.16;105615;1253;73562;-47
2023/07/17 09:37:34;;;;;;;4.20;2.90;;;;;;;28.73;38.37;100663.64;105599;1258;70689;-47
2023/07/17 09:40:10;;;;;;;6.20;2.90;;;;;;;28.78;38.12;100667.88;105712;1254;70355;-48
2023/07/17 09:42:43;;;;;;;5.30;2.70;;;;;;;28.74;37.81;100671.45;105632;1253;75237;-48
2023/07/17 09:45:11;;;;;;;3.80;2.70;;;;;;;28.68;37.65;100673.68;105612;1258;81802;-47
2023/07/17 09:47:40;;;;;;;3.90;2.70;;;;;;;28.63;37.58;100672.93;105640;1253;72678;-48
2023/07/17 09:50:09;;;;;;;8.10;3.30;;;;;;;28.59;37.20;100674.62;105596;1258;69991;-52
2023/07/17 09:52:37;;;;;;;6.00;2.90;;;;;;;28.57;37.10;100674.89;105505;1258;69871;-48
2023/07/17 09:55:07;;;;;;;6.90;3.50;;;;;;;28.51;36.91;100672.08;105916;1256;73974;-48
2023/07/17 09:57:39;;;;;;;6.50;3.30;;;;;;;28.43;36.81;100668.95;105803;1253;82861;-48
2023/07/17 10:00:17;;;;;;;6.80;3.40;;;;;;;28.38;36.63;100665.74;105666;1253;72675;-49
2023/07/17 10:02:56;;;;;;;7.60;3.00;;;;;;;28.42;36.76;100665.52;105420;1253;69986;-48
2023/07/17 10:05:26;;;;;;;5.10;3.30;;;;;;;28.61;36.76;100666.73;105555;1259;69827;-48
2023/07/17 10:07:54;;;;;;;7.10;3.40;;;;;;;28.74;36.28;100667.91;105434;1259;75595;-48
2023/07/17 10:10:23;;;;;;;6.10;3.60;;;;;;;28.69;35.94;100663.09;105747;1258;83121;-49
2023/07/17 10:12:52;;;;;;;5.40;3.20;;;;;;;28.67;36.12;100664.40;105814;1258;73653;-48
2023/07/17 10:15:21;;;;;;;9.70;3.60;;;;;;;28.66;36.11;100666.79;105328;1258;69817;-47
2023/07/17 10:17:59;;;;;;;6.00;3.80;;;;;;;28.61;35.89;100670.27;105359;1259;69948;-48
2023/07/17 10:20:31;;;;;;;6.00;3.70;;;;;;;28.52;35.63;100673.46;105537;1258;74687;-47
2023/07/17 10:23:00;;;;;;;8.00;4.00;;;;;;;28.51;35.63;100671.43;105512;1257;83190;-51
2023/07/17 10:25:29;;;;;;;6.70;3.90;;;;;;;28.48;35.50;100671.90;105564;1259;74327;-48
2023/07/17 10:28:00;;;;;;;5.20;3.40;;;;;;;28.45;35.71;100661.73;105727;1257;69999;-49
2023/07/17 10:30:36;;;;;;;7.40;3.60;;;;;;;28.50;35.91;100659.64;105879;1256;70561;-49
2023/07/17 10:33:07;;;;;;;7.70;3.80;;;;;;;28.50;35.75;100659.47;105513;1258;74862;-48
2023/07/17 10:35:46;;;;;;;6.10;4.10;;;;;;;28.38;35.48;100656.20;105689;1257;83352;-51
2023/07/17 10:38:17;;;;;;;6.20;3.80;;;;;;;28.38;35.63;100647.79;105597;1255;72525;-48
2023/07/17 10:40:46;;;;;;;6.60;3.90;;;;;;;28.59;35.66;100643.73;105579;1253;69872;-49
2023/07/17 10:43:19;;;;;;;7.10;3.60;;;;;;;28.90;35.46;100635.45;105489;1259;70210;-51
2023/07/17 10:45:48;;;;;;;8.10;3.60;;;;;;;29.08;34.89;100636.48;105473;1257;73772;-47
2023/07/17 10:48:18;;;;;;;;;;;;;;;29.21;34.94;100631.70;105461;1253;82897;-49
2023/07/17 10:50:48;;;;;;;6.20;3.30;;;;;;;29.30;34.92;100633.65;105414;1257;74003;-49
2023/07/17 10:53:17;;;;;;;7.10;4.40;;;;;;;29.35;34.93;100636.17;105440;1258;70025;-48
2023/07/17 10:55:46;;;;;;;4.90;3.60;;;;;;;29.12;34.12;100641.86;105455;1259;69872;-48
2023/07/17 10:58:17;;;;;;;6.40;3.80;;;;;;;28.89;34.58;100632.49;105598;1253;74815;-49
2023/07/17 11:00:47;;;;;;;6.00;3.80;;;;;;;28.85;34.74;100634.58;105578;1259;82129;-49
2023/07/17 11:03:17;;;;;;;6.40;3.70;;;;;;;28.73;34.41;100629.64;105338;1257;73541;-49
2023/07/17 11:05:46;;;;;;;5.80;3.60;;;;;;;28.57;34.55;100626.51;105439;1257;69986;-48
2023/07/17 11:08:14;;;;;;;7.00;4.10;;;;;;;28.45;34.58;100622.39;105393;1258;69997;-48
2023/07/17 11:10:44;;;;;;;7.30;4.10;;;;;;;28.42;34.58;100624.70;105766;1257;74684;-48
2023/07/17 11:13:12;;;;;;;6.20;3.90;;;;;;;28.36;34.63;100621.17;105471;1257;82559;-48
2023/07/17 11:15:42;;;;;;;7.00;3.90;;;;;;;28.29;34.58;100623.05;109317;1254;73726;-49
2023/07/17 11:18:10;;;;;;;5.90;3.60;;;;;;;28.22;34.47;100622.02;109330;1254;67703;-47
2023/07/17 11:20:39;;;;;;;6.00;4.20;;;;;;;28.17;34.45;100621.25;109340;1256;67699;-47
2023/07/17 11:23:11;;;;;;;6.70;3.80;;;;;;;28.23;34.55;100618.27;109352;1256;73792;-46
2023/07/17 11:25:40;;;;;;;7.70;3.80;;;;;;;28.63;34.34;100613.75;109313;1254;82582;-47
2023/07/17 11:28:08;;;;;;;6.50;4.00;;;;;;;29.21;34.22;100613.23;109305;1254;73215;-47